Time;durP1;ratioP1;P1;durP2;ratioP2;P2;SDS_P1;SDS_P2;PMS_P1;PMS_P2;Temp;Humidity;BMP_temperature;BMP_pressure;BME280_temperature;BME280_humidity;BME280_pressure;Samples;Min_cycle;Max_cycle;Signal;HPM_P1;HPM_P2
2021/07/24 00:01:51;;;;;;;12.33;11.23;;;22.20;99.90;;;;;;4936278;29;20505;-62
2021/07/24 00:04:17;;;;;;;14.70;13.20;;;22.20;99.90;;;;;;4935416;29;20461;-62
2021/07/24 00:06:43;;;;;;;13.90;12.20;;;22.20;99.90;;;;;;4936409;29;20572;-61
2021/07/24 00:09:09;;;;;;;13.30;12.00;;;22.10;99.90;;;;;;4936559;29;20454;-62
2021/07/24 00:11:35;;;;;;;12.80;11.50;;;22.00;99.90;;;;;;4936256;29;20429;-62
2021/07/24 00:14:01;;;;;;;12.87;11.67;;;21.90;99.90;;;;;;4934980;29;20182;-62
2021/07/24 00:16:26;;;;;;;13.30;11.43;;;21.90;99.90;;;;;;4930228;29;20425;-62
2021/07/24 00:18:52;;;;;;;12.87;10.30;;;21.90;99.90;;;;;;4940307;29;20199;-61
2021/07/24 00:21:18;;;;;;;10.83;9.83;;;22.10;99.90;;;;;;4939866;29;20707;-61
2021/07/24 00:23:44;;;;;;;11.40;10.27;;;22.20;99.90;;;;;;4939745;29;20253;-62
2021/07/24 00:26:13;;;;;;;11.90;10.70;;;22.30;99.90;;;;;;4939879;29;20163;-62
2021/07/24 00:28:40;;;;;;;11.90;10.70;;;22.30;99.90;;;;;;4939559;29;20676;-60
2021/07/24 00:31:06;;;;;;;11.77;10.57;;;22.20;99.90;;;;;;4939626;29;20403;-62
2021/07/24 00:33:31;;;;;;;12.83;11.53;;;22.20;99.90;;;;;;4939599;29;20815;-62
2021/07/24 00:36:00;;;;;;;12.73;11.40;;;22.10;99.90;;;;;;4939520;29;20175;-62
2021/07/24 00:38:26;;;;;;;12.13;11.03;;;22.10;99.90;;;;;;4940177;29;20694;-62
2021/07/24 00:40:55;;;;;;;11.17;10.07;;;22.00;99.90;;;;;;4939855;29;20410;-62
2021/07/24 00:43:27;;;;;;;12.03;10.73;;;21.90;99.90;;;;;;4939892;29;20457;-60
2021/07/24 00:45:54;;;;;;;11.73;10.63;;;21.90;99.90;;;;;;4939877;29;20395;-61
2021/07/24 00:48:21;;;;;;;13.53;10.67;;;21.90;99.90;;;;;;4939198;29;20422;-62
2021/07/24 00:50:56;;;;;;;12.60;11.40;;;21.80;99.90;;;;;;4938849;29;20415;-62
2021/07/24 00:55:57;;;;;;;12.00;10.90;;;21.70;99.90;;;;;;4940484;28;20466;-62
2021/07/24 00:58:24;;;;;;;12.30;11.20;;;21.60;99.90;;;;;;4938948;29;20413;-63
2021/07/24 01:00:50;;;;;;;16.87;11.33;;;21.60;99.90;;;;;;4939146;29;20171;-62
2021/07/24 01:03:15;;;;;;;11.80;10.60;;;21.70;99.90;;;;;;4939148;29;20405;-62
2021/07/24 01:05:42;;;;;;;11.33;10.13;;;21.60;99.90;;;;;;4938886;29;20679;-62
2021/07/24 01:08:08;;;;;;;12.90;11.27;;;21.60;99.90;;;;;;4938988;29;20205;-63
2021/07/24 01:10:34;;;;;;;11.87;10.77;;;21.70;99.90;;;;;;4938469;29;20900;-63
2021/07/24 01:13:01;;;;;;;12.33;11.03;;;21.80;99.90;;;;;;4938991;29;20261;-62
2021/07/24 01:15:26;;;;;;;12.20;10.93;;;21.80;99.90;;;;;;4938602;29;20187;-62
2021/07/24 01:17:52;;;;;;;12.97;11.67;;;21.80;99.90;;;;;;4938609;29;20438;-63
2021/07/24 01:20:18;;;;;;;12.80;11.23;;;21.70;99.90;;;;;;4938548;29;20229;-63
2021/07/24 01:22:44;;;;;;;13.57;12.27;;;21.70;99.90;;;;;;4938619;29;20179;-60
2021/07/24 01:25:10;;;;;;;12.23;10.87;;;21.70;99.90;;;;;;4925733;29;20459;-62
2021/07/24 01:27:42;;;;;;;12.00;10.90;;;21.70;99.90;;;;;;4918973;29;20167;-62
2021/07/24 01:30:10;;;;;;;12.60;11.50;;;21.70;99.90;;;;;;4919577;29;20407;-62
2021/07/24 01:32:36;;;;;;;13.40;10.93;;;21.70;99.90;;;;;;4919765;29;20419;-61
2021/07/24 01:35:01;;;;;;;11.90;10.70;;;21.80;99.90;;;;;;4919599;29;20440;-62
2021/07/24 01:37:27;;;;;;;13.70;11.20;;;21.70;99.90;;;;;;4919357;29;20254;-63
2021/07/24 01:39:52;;;;;;;12.63;11.33;;;21.70;99.90;;;;;;4919141;29;20234;-63
2021/07/24 01:42:18;;;;;;;12.87;11.57;;;21.70;99.90;;;;;;4919790;29;20168;-62
2021/07/24 01:44:44;;;;;;;13.90;12.50;;;21.70;99.90;;;;;;4919148;29;20207;-62
2021/07/24 01:47:09;;;;;;;13.60;12.37;;;21.60;99.90;;;;;;4919503;29;20206;-62
2021/07/24 01:52:46;;;;;;;14.40;13.07;;;21.50;99.90;;;;;;4919742;29;20655;-61
2021/07/24 01:55:18;;;;;;;13.20;11.90;;;21.40;99.90;;;;;;4918630;29;20948;-62
2021/07/24 01:57:47;;;;;;;15.50;12.17;;;21.40;99.90;;;;;;4919199;29;20410;-62
2021/07/24 02:00:13;;;;;;;12.20;11.10;;;21.40;99.90;;;;;;4919633;29;20416;-62
2021/07/24 02:02:40;;;;;;;13.07;11.77;;;21.40;99.90;;;;;;4919406;29;20415;-61
2021/07/24 02:05:14;;;;;;;12.77;11.20;;;21.40;99.90;;;;;;4918660;29;20852;-62
2021/07/24 02:07:43;;;;;;;13.37;12.17;;;21.40;99.90;;;;;;4919101;29;20403;-61
2021/07/24 02:10:09;;;;;;;13.20;11.90;;;21.40;99.90;;;;;;4918044;29;20407;-65
2021/07/24 02:12:36;;;;;;;13.40;12.00;;;21.40;99.90;;;;;;4918700;29;20759;-62
2021/07/24 02:15:02;;;;;;;13.20;11.80;;;21.40;99.90;;;;;;4919090;29;20432;-61
2021/07/24 02:17:31;;;;;;;13.40;12.00;;;21.40;99.90;;;;;;4919121;29;20447;-62
2021/07/24 02:20:01;;;;;;;13.50;11.60;;;21.40;99.90;;;;;;4918886;29;20399;-62
2021/07/24 02:22:27;;;;;;;12.73;11.53;;;21.30;99.90;;;;;;4918536;29;20771;-63
2021/07/24 02:24:52;;;;;;;13.57;12.27;;;21.20;99.90;;;;;;4918190;29;20459;-62
2021/07/24 02:27:18;;;;;;;16.63;13.17;;;21.20;99.90;;;;;;4918620;29;20249;-62
2021/07/24 02:29:44;;;;;;;13.13;11.93;;;21.20;99.90;;;;;;4918561;29;20175;-62
2021/07/24 02:32:09;;;;;;;12.00;10.90;;;21.20;99.90;;;;;;4919105;29;20278;-62
2021/07/24 02:34:35;;;;;;;13.93;12.07;;;21.20;99.90;;;;;;4918148;29;20331;-62
2021/07/24 02:37:00;;;;;;;13.17;11.90;;;21.20;99.90;;;;;;4918413;29;20210;-63
2021/07/24 02:39:26;;;;;;;12.00;10.80;;;21.20;99.90;;;;;;4917888;29;20270;-62
2021/07/24 02:41:51;;;;;;;12.87;11.67;;;21.30;99.90;;;;;;4918210;29;20174;-60
2021/07/24 02:44:17;;;;;;;13.23;11.93;;;21.40;99.90;;;;;;4917987;29;20323;-62
2021/07/24 02:46:42;;;;;;;13.00;11.70;;;21.20;99.90;;;;;;4918264;29;20190;-62
2021/07/24 02:49:09;;;;;;;12.53;11.23;;;21.40;99.90;;;;;;4917949;29;20172;-65
2021/07/24 02:51:34;;;;;;;13.43;12.13;;;21.50;99.90;;;;;;4918277;29;20231;-62
2021/07/24 02:54:01;;;;;;;13.03;11.83;;;21.50;99.90;;;;;;4917763;29;20801;-62
2021/07/24 02:56:26;;;;;;;12.93;11.63;;;21.50;99.90;;;;;;4917966;29;20171;-62
2021/07/24 02:58:52;;;;;;;15.63;12.30;;;21.60;99.90;;;;;;4918218;29;20416;-61
2021/07/24 03:01:17;;;;;;;13.27;11.87;;;21.50;99.90;;;;;;4917914;29;20671;-63
2021/07/24 03:03:43;;;;;;;12.33;11.13;;;21.60;99.90;;;;;;4917827;29;20181;-63
2021/07/24 03:06:09;;;;;;;15.23;13.63;;;21.60;99.90;;;;;;4917720;29;20700;-63
2021/07/24 03:08:34;;;;;;;12.47;11.27;;;21.70;99.90;;;;;;4917823;29;20167;-63
2021/07/24 03:11:00;;;;;;;13.67;12.27;;;21.60;99.90;;;;;;4917708;29;20175;-62
2021/07/24 03:13:25;;;;;;;13.47;12.10;;;21.50;99.90;;;;;;4917957;29;20202;-63
2021/07/24 03:15:51;;;;;;;14.67;13.23;;;21.50;99.90;;;;;;4917766;29;20199;-63
2021/07/24 03:18:17;;;;;;;14.43;12.93;;;21.50;99.90;;;;;;4917943;29;20545;-63
2021/07/24 03:20:42;;;;;;;13.30;11.20;;;21.50;99.90;;;;;;4917891;29;20176;-63
2021/07/24 03:23:08;;;;;;;13.90;12.50;;;21.50;99.90;;;;;;4917824;29;20628;-62
2021/07/24 03:25:33;;;;;;;12.03;10.93;;;21.50;99.90;;;;;;4917087;29;20562;-62
2021/07/24 03:28:00;;;;;;;13.23;11.37;;;21.50;99.90;;;;;;4917571;29;20246;-62
2021/07/24 03:30:25;;;;;;;14.33;12.23;;;21.60;99.90;;;;;;4917484;29;20773;-61
2021/07/24 03:32:51;;;;;;;13.87;12.67;;;21.60;99.90;;;;;;4918001;29;20491;-63
2021/07/24 03:35:17;;;;;;;13.00;11.80;;;21.60;99.90;;;;;;4917698;29;20570;-62
2021/07/24 03:37:42;;;;;;;13.23;11.87;;;21.60;99.90;;;;;;4918202;29;20210;-64
2021/07/24 03:40:08;;;;;;;13.30;12.03;;;21.60;99.90;;;;;;4917394;29;20175;-63
2021/07/24 03:42:34;;;;;;;13.20;11.90;;;21.50;99.90;;;;;;4917577;29;20175;-63
2021/07/24 03:44:59;;;;;;;14.80;13.40;;;21.40;99.90;;;;;;4917849;29;20803;-63
2021/07/24 03:47:25;;;;;;;13.93;12.63;;;21.40;99.90;;;;;;4918011;29;20186;-63
2021/07/24 03:49:51;;;;;;;13.97;12.47;;;21.50;99.90;;;;;;4926517;29;20182;-63
2021/07/24 03:52:16;;;;;;;14.73;13.20;;;21.50;99.90;;;;;;4936243;29;20254;-63
2021/07/24 03:54:42;;;;;;;13.50;12.20;;;21.40;99.90;;;;;;4927217;29;20245;-63
2021/07/24 03:57:07;;;;;;;13.73;12.33;;;21.30;99.90;;;;;;4917438;29;20235;-63
2021/07/24 03:59:33;;;;;;;14.63;13.00;;;21.50;99.90;;;;;;4917389;29;20602;-63
2021/07/24 04:01:59;;;;;;;13.67;12.40;;;21.60;99.90;;;;;;4917238;29;20218;-63
2021/07/24 04:04:25;;;;;;;13.83;12.53;;;21.60;99.90;;;;;;4916648;29;20207;-63
2021/07/24 04:06:53;;;;;;;14.57;13.13;;;21.50;99.90;;;;;;4917143;29;20180;-64
2021/07/24 04:09:19;;;;;;;13.63;12.20;;;21.50;99.90;;;;;;4916646;29;20503;-63
2021/07/24 04:11:45;;;;;;;13.77;12.40;;;21.60;99.90;;;;;;4916870;29;20448;-63
2021/07/24 04:14:13;;;;;;;14.97;13.47;;;21.70;99.90;;;;;;4916954;29;20439;-63
2021/07/24 04:16:38;;;;;;;14.03;12.73;;;21.70;99.90;;;;;;4917071;29;20419;-63
2021/07/24 04:19:04;;;;;;;12.90;11.70;;;21.80;99.90;;;;;;4916755;29;20430;-63
2021/07/24 04:21:30;;;;;;;14.33;12.83;;;21.70;99.90;;;;;;4917228;29;20191;-63
2021/07/24 04:23:55;;;;;;;12.90;11.30;;;21.70;99.90;;;;;;4917019;29;20199;-62
2021/07/24 04:26:25;;;;;;;12.17;11.07;;;21.60;99.90;;;;;;4916795;29;20176;-62
2021/07/24 04:28:50;;;;;;;13.33;12.03;;;21.60;99.90;;;;;;4916666;29;20195;-62
2021/07/24 04:31:16;;;;;;;13.73;12.43;;;21.60;99.90;;;;;;4916905;29;20451;-62
2021/07/24 04:33:42;;;;;;;14.90;13.33;;;21.60;99.90;;;;;;4916896;29;20753;-61
2021/07/24 04:36:12;;;;;;;17.13;14.00;;;21.70;99.90;;;;;;4916617;29;20280;-61
2021/07/24 04:38:38;;;;;;;15.77;14.13;;;21.60;99.90;;;;;;4916818;29;20415;-62
2021/07/24 04:41:03;;;;;;;16.70;15.00;;;21.40;99.90;;;;;;4916269;29;20411;-64
2021/07/24 04:43:29;;;;;;;14.60;13.10;;;21.50;99.90;;;;;;4916821;29;20282;-62
2021/07/24 04:45:54;;;;;;;14.40;13.00;;;21.50;99.90;;;;;;4916495;29;20199;-61
2021/07/24 04:48:20;;;;;;;13.50;12.10;;;21.60;99.90;;;;;;4916680;29;20706;-62
2021/07/24 04:50:50;;;;;;;13.17;11.87;;;21.40;99.90;;;;;;4916645;29;20183;-63
2021/07/24 04:53:17;;;;;;;14.60;12.60;;;21.50;99.90;;;;;;4917160;29;20198;-62
2021/07/24 04:55:43;;;;;;;14.67;13.37;;;21.60;99.90;;;;;;4916169;29;20451;-63
2021/07/24 04:58:09;;;;;;;14.40;13.10;;;21.70;99.90;;;;;;4916938;29;20490;-63
2021/07/24 05:00:40;;;;;;;13.97;12.57;;;21.90;99.90;;;;;;4916895;29;20846;-62
2021/07/24 05:03:06;;;;;;;14.10;12.60;;;22.00;99.90;;;;;;4918503;29;20478;-63
2021/07/24 05:05:35;;;;;;;14.27;12.97;;;21.90;99.90;;;;;;4920112;29;20554;-62
2021/07/24 05:08:02;;;;;;;15.00;12.73;;;21.60;99.90;;;;;;4920163;29;20506;-61
2021/07/24 05:10:27;;;;;;;13.80;12.30;;;21.60;99.90;;;;;;4919975;29;20502;-62
2021/07/24 05:12:53;;;;;;;14.90;13.50;;;21.70;99.90;;;;;;4919852;29;20447;-62
2021/07/24 05:15:19;;;;;;;13.57;12.17;;;21.70;99.90;;;;;;4919944;29;20195;-63
2021/07/24 05:17:44;;;;;;;14.57;13.17;;;21.70;99.90;;;;;;4919886;29;20195;-62
2021/07/24 05:20:10;;;;;;;14.57;13.07;;;21.70;99.90;;;;;;4919889;29;20203;-63
2021/07/24 05:22:36;;;;;;;12.43;11.13;;;21.60;99.90;;;;;;4919993;29;20183;-63
2021/07/24 05:25:01;;;;;;;12.50;11.30;;;21.70;99.90;;;;;;4919371;29;20231;-63
2021/07/24 05:27:27;;;;;;;14.40;12.90;;;22.00;99.90;;;;;;4920356;29;20183;-63
2021/07/24 05:29:53;;;;;;;13.77;12.37;;;22.10;99.90;;;;;;4919874;29;20202;-62
2021/07/24 05:32:18;;;;;;;14.77;13.20;;;22.30;99.90;;;;;;4919709;29;20190;-63
2021/07/24 05:34:44;;;;;;;13.43;12.10;;;22.50;99.90;;;;;;4919569;29;20278;-62
2021/07/24 05:37:09;;;;;;;14.43;13.03;;;22.50;99.90;;;;;;4919649;29;20547;-63
2021/07/24 05:39:35;;;;;;;14.67;13.10;;;22.70;99.90;;;;;;4919040;29;20186;-63
2021/07/24 05:42:01;;;;;;;14.60;13.20;;;22.90;99.90;;;;;;4919471;29;20186;-63
2021/07/24 05:44:26;;;;;;;14.00;12.70;;;23.10;99.90;;;;;;4919265;29;20203;-63
2021/07/24 05:46:52;;;;;;;15.23;13.77;;;23.30;99.90;;;;;;4919819;29;20536;-63
2021/07/24 05:49:17;;;;;;;15.70;14.10;;;23.40;99.90;;;;;;4919208;29;20243;-63
2021/07/24 05:51:43;;;;;;;13.07;11.87;;;23.50;99.90;;;;;;4919364;29;20178;-63
2021/07/24 05:54:10;;;;;;;14.73;13.20;;;23.70;99.90;;;;;;4919050;29;20235;-63
2021/07/24 05:56:36;;;;;;;13.57;12.07;;;23.60;99.90;;;;;;4919056;29;20458;-63
2021/07/24 05:59:02;;;;;;;14.97;12.77;;;23.90;99.90;;;;;;4919347;29;20880;-63
2021/07/24 06:01:28;;;;;;;14.33;12.93;;;24.00;99.90;;;;;;4919272;29;20188;-63
2021/07/24 06:03:55;;;;;;;14.20;12.80;;;23.90;99.90;;;;;;4919092;29;20443;-63
2021/07/24 06:06:20;;;;;;;14.47;13.17;;;24.00;99.90;;;;;;4919209;29;20175;-64
2021/07/24 06:08:46;;;;;;;15.03;13.53;;;23.90;99.90;;;;;;4918855;29;20815;-64
2021/07/24 06:11:11;;;;;;;14.20;12.70;;;24.00;99.90;;;;;;4918197;29;20179;-63
2021/07/24 06:13:37;;;;;;;14.40;13.10;;;24.00;99.90;;;;;;4918526;29;20176;-63
2021/07/24 06:16:03;;;;;;;12.83;11.63;;;24.10;99.90;;;;;;4918925;29;20709;-63
2021/07/24 06:18:28;;;;;;;14.27;12.87;;;24.10;99.90;;;;;;4919160;29;20176;-64
2021/07/24 06:20:54;;;;;;;13.93;12.53;;;24.10;99.90;;;;;;4918831;29;20214;-63
2021/07/24 06:23:20;;;;;;;15.50;14.00;;;24.00;99.90;;;;;;4918793;29;20194;-63
2021/07/24 06:25:46;;;;;;;13.93;12.53;;;24.00;99.90;;;;;;4917978;29;20211;-64
2021/07/24 06:28:13;;;;;;;14.70;13.20;;;24.00;99.90;;;;;;4918738;29;20206;-62
2021/07/24 06:30:39;;;;;;;14.67;13.20;;;24.00;99.90;;;;;;4918392;29;20435;-63
2021/07/24 06:33:05;;;;;;;15.00;13.60;;;23.90;99.90;;;;;;4918407;29;20499;-61
2021/07/24 06:35:31;;;;;;;13.20;11.97;;;23.70;99.90;;;;;;4918565;29;20489;-63
2021/07/24 06:37:56;;;;;;;15.43;13.03;;;23.80;99.90;;;;;;4918233;29;20530;-63
2021/07/24 06:40:22;;;;;;;14.00;12.40;;;23.90;99.90;;;;;;4918621;29;20222;-63
2021/07/24 06:42:48;;;;;;;14.17;12.77;;;24.00;99.90;;;;;;4929087;29;20559;-62
2021/07/24 06:45:14;;;;;;;14.23;12.43;;;24.10;99.90;;;;;;4937312;29;20450;-63
2021/07/24 06:47:40;;;;;;;15.20;13.30;;;24.20;99.90;;;;;;4937146;29;20819;-63
2021/07/24 06:50:06;;;;;;;14.10;12.70;;;24.30;99.90;;;;;;4937434;29;20166;-63
2021/07/24 06:52:32;;;;;;;13.17;11.80;;;24.60;99.90;;;;;;4937392;29;20225;-67
2021/07/24 06:54:57;;;;;;;14.97;13.53;;;24.60;99.90;;;;;;4919490;29;20991;-62
2021/07/24 06:57:23;;;;;;;13.97;12.70;;;24.70;99.90;;;;;;4918019;29;20187;-63
2021/07/24 06:59:49;;;;;;;13.23;11.93;;;24.60;99.90;;;;;;4918200;29;20599;-62
2021/07/24 07:02:14;;;;;;;13.23;12.03;;;24.90;99.90;;;;;;4917759;29;20179;-63
2021/07/24 07:04:40;;;;;;;15.07;13.47;;;25.10;99.90;;;;;;4917988;29;20199;-63
2021/07/24 07:07:09;;;;;;;17.17;15.30;;;25.10;99.90;;;;;;4918303;29;20227;-62
2021/07/24 07:09:35;;;;;;;16.60;14.80;;;25.00;99.90;;;;;;4918137;29;20171;-62
2021/07/24 07:12:01;;;;;;;14.30;12.90;;;24.80;99.90;;;;;;4917671;29;20470;-62
2021/07/24 07:14:28;;;;;;;15.90;14.30;;;24.90;99.90;;;;;;4917872;29;20243;-62
2021/07/24 07:16:54;;;;;;;15.67;12.87;;;24.80;99.90;;;;;;4918462;29;20785;-62
2021/07/24 07:19:21;;;;;;;15.00;13.60;;;25.00;99.90;;;;;;4918258;29;20412;-62
2021/07/24 07:21:47;;;;;;;14.93;13.50;;;25.20;99.90;;;;;;4917565;29;20443;-63
2021/07/24 07:24:13;;;;;;;14.57;13.17;;;25.30;99.90;;;;;;4917456;29;20498;-62
2021/07/24 07:26:40;;;;;;;13.90;12.50;;;25.30;99.90;;;;;;4917269;29;20176;-62
2021/07/24 07:29:06;;;;;;;14.27;12.83;;;25.20;99.90;;;;;;4918530;29;20560;-64
2021/07/24 07:31:33;;;;;;;13.77;12.47;;;25.10;99.90;;;;;;4917650;29;20408;-64
2021/07/24 07:34:00;;;;;;;14.70;12.83;;;25.20;99.90;;;;;;4917971;29;20183;-62
2021/07/24 07:36:26;;;;;;;13.40;12.10;;;25.30;99.90;;;;;;4919655;29;20517;-63
2021/07/24 07:38:52;;;;;;;14.13;12.63;;;25.10;99.90;;;;;;4917328;29;20424;-64
2021/07/24 07:41:18;;;;;;;13.47;12.17;;;24.80;99.90;;;;;;4917596;29;20408;-64
2021/07/24 07:43:44;;;;;;;13.13;11.47;;;24.80;99.90;;;;;;4917417;29;20403;-64
2021/07/24 07:46:10;;;;;;;13.30;12.00;;;24.80;99.90;;;;;;4917587;29;20250;-65
2021/07/24 07:48:37;;;;;;;13.27;11.97;;;24.60;99.90;;;;;;4918298;29;20491;-64
2021/07/24 07:51:04;;;;;;;15.83;13.70;;;24.70;99.90;;;;;;4917795;29;20171;-65
2021/07/24 07:53:30;;;;;;;16.10;14.33;;;24.80;99.90;;;;;;4917357;29;20407;-64
2021/07/24 07:55:56;;;;;;;14.90;13.40;;;24.60;99.90;;;;;;4916851;29;21044;-64
2021/07/24 07:58:23;;;;;;;16.47;14.73;;;24.50;99.90;;;;;;4917271;29;20484;-64
2021/07/24 08:00:50;;;;;;;17.53;15.07;;;24.20;99.90;;;;;;4917243;29;20214;-64
2021/07/24 08:03:16;;;;;;;19.27;16.53;;;24.20;99.90;;;;;;4917264;29;20434;-64
2021/07/24 08:05:42;;;;;;;15.70;14.10;;;24.20;99.90;;;;;;4916989;29;20622;-64
2021/07/24 08:08:07;;;;;;;15.50;13.90;;;24.00;99.90;;;;;;4917107;29;20977;-64
2021/07/24 08:10:34;;;;;;;15.77;14.13;;;23.80;99.90;;;;;;4916770;29;20637;-64
2021/07/24 08:13:13;;;;;;;15.93;13.30;;;24.00;99.90;;;;;;4916640;29;20167;-64
2021/07/24 08:15:38;;;;;;;14.60;12.73;;;24.20;99.90;;;;;;4916822;29;20996;-64
2021/07/24 08:18:04;;;;;;;14.63;13.33;;;24.20;99.90;;;;;;4915583;29;20506;-63
2021/07/24 08:20:29;;;;;;;13.20;11.93;;;24.20;99.90;;;;;;4917079;29;20182;-63
2021/07/24 08:22:55;;;;;;;13.90;12.50;;;24.40;99.90;;;;;;4917077;29;20266;-63
2021/07/24 08:25:21;;;;;;;15.50;13.93;;;24.50;99.90;;;;;;4916384;29;20203;-65
2021/07/24 08:27:46;;;;;;;14.00;12.60;;;24.70;99.90;;;;;;4915510;29;20258;-63
2021/07/24 08:30:12;;;;;;;13.87;12.50;;;24.60;99.90;;;;;;4916618;29;20214;-65
2021/07/24 08:32:38;;;;;;;15.37;13.97;;;24.60;99.90;;;;;;4916793;29;20167;-64
2021/07/24 08:35:03;;;;;;;13.87;12.53;;;24.60;99.90;;;;;;4916491;29;20686;-64
2021/07/24 08:37:32;;;;;;;15.07;13.50;;;24.40;99.90;;;;;;4919441;29;20185;-64
2021/07/24 08:39:58;;;;;;;15.17;13.27;;;24.40;99.90;;;;;;4920650;29;20833;-64
2021/07/24 08:42:32;;;;;;;16.40;12.70;;;24.20;99.90;;;;;;4920454;29;20418;-64
2021/07/24 08:44:59;;;;;;;14.50;12.97;;;24.40;99.90;;;;;;4920262;29;20202;-64
2021/07/24 08:47:25;;;;;;;14.03;12.70;;;24.70;99.90;;;;;;4919745;29;20408;-63
2021/07/24 08:49:50;;;;;;;13.20;12.00;;;25.10;99.90;;;;;;4921168;29;20411;-63
2021/07/24 08:52:19;;;;;;;12.50;11.40;;;25.40;99.90;;;;;;4919853;29;20649;-63
2021/07/24 08:54:44;;;;;;;14.97;13.50;;;25.60;99.90;;;;;;4920088;29;20241;-64
2021/07/24 08:57:15;;;;;;;14.83;13.40;;;25.50;99.90;;;;;;4919740;29;20407;-65
2021/07/24 08:59:41;;;;;;;16.37;14.87;;;25.20;99.90;;;;;;4920280;29;20160;-63
2021/07/24 09:02:09;;;;;;;16.33;12.73;;;25.20;99.90;;;;;;4919924;29;20435;-63
2021/07/24 09:04:36;;;;;;;14.83;13.00;;;25.40;99.90;;;;;;4919752;29;20447;-64
2021/07/24 09:07:05;;;;;;;14.70;13.30;;;25.70;99.90;;;;;;4920081;29;20447;-63
2021/07/24 09:09:31;;;;;;;15.20;12.60;;;26.00;99.90;;;;;;4920048;29;20956;-63
2021/07/24 09:11:58;;;;;;;14.70;12.80;;;26.00;99.90;;;;;;4919643;29;20415;-63
2021/07/24 09:14:24;;;;;;;14.93;13.40;;;26.30;99.90;;;;;;4919801;29;20439;-63
2021/07/24 09:16:50;;;;;;;14.93;13.07;;;26.50;99.90;;;;;;4920081;29;20772;-63
2021/07/24 09:19:17;;;;;;;13.87;12.57;;;26.50;99.90;;;;;;4918435;29;20262;-63
2021/07/24 09:21:43;;;;;;;17.00;13.27;;;26.90;99.90;;;;;;4920232;29;20779;-63
2021/07/24 09:24:22;;;;;;;14.13;12.73;;;26.90;99.90;;;;;;4919449;29;20459;-64
2021/07/24 09:26:48;;;;;;;13.37;11.97;;;26.90;99.90;;;;;;4919842;29;20171;-64
2021/07/24 09:29:18;;;;;;;13.60;12.20;;;27.30;99.90;;;;;;4919645;29;20961;-64
2021/07/24 09:31:45;;;;;;;13.93;12.53;;;27.30;99.90;;;;;;4920002;29;20526;-63
2021/07/24 09:34:15;;;;;;;15.17;13.63;;;27.30;99.90;;;;;;4924039;29;20443;-64
2021/07/24 09:36:42;;;;;;;15.43;13.83;;;27.20;99.90;;;;;;4934770;29;20482;-64
2021/07/24 09:39:14;;;;;;;14.87;13.27;;;27.30;99.90;;;;;;4938688;29;20410;-64
2021/07/24 09:41:42;;;;;;;15.27;13.63;;;27.50;99.90;;;;;;4938523;29;20419;-64
2021/07/24 09:44:08;;;;;;;15.73;13.93;;;27.30;99.90;;;;;;4938451;29;20465;-63
2021/07/24 09:46:34;;;;;;;13.23;11.93;;;27.30;99.90;;;;;;4938080;29;20498;-64
2021/07/24 09:49:13;;;;;;;13.97;12.47;;;27.40;99.90;;;;;;4938221;29;20406;-64
2021/07/24 09:51:41;;;;;;;14.07;12.77;;;27.60;99.90;;;;;;4938224;29;20523;-64
2021/07/24 09:54:26;;;;;;;14.10;12.70;;;27.90;99.90;;;;;;4934326;29;20582;-64
2021/07/24 09:56:52;;;;;;;12.90;11.70;;;27.70;99.90;;;;;;4918943;29;20428;-64
2021/07/24 09:59:22;;;;;;;16.30;13.50;;;27.40;99.90;;;;;;4919833;29;20470;-63
2021/07/24 10:02:08;;;;;;;14.63;13.30;;;27.40;99.90;;;;;;4919336;29;20494;-64
2021/07/24 10:04:38;;;;;;;14.80;13.30;;;27.80;99.90;;;;;;4919087;29;20857;-63
2021/07/24 10:07:09;;;;;;;14.07;12.67;;;27.80;99.90;;;;;;4918971;29;20510;-64
2021/07/24 10:09:37;;;;;;;13.33;12.03;;;27.90;99.90;;;;;;4919291;29;20496;-64
2021/07/24 10:12:15;;;;;;;13.70;12.40;;;27.70;99.90;;;;;;4918509;29;20411;-64
2021/07/24 10:14:42;;;;;;;13.03;11.70;;;27.90;99.90;;;;;;4919021;29;20475;-63
2021/07/24 10:17:08;;;;;;;12.33;11.23;;;27.80;99.90;;;;;;4919100;29;20422;-63
2021/07/24 10:19:34;;;;;;;12.60;11.33;;;27.60;99.90;;;;;;4918554;29;20419;-64
2021/07/24 10:22:01;;;;;;;12.70;11.50;;;28.30;99.90;;;;;;4918489;29;20427;-64
2021/07/24 10:24:28;;;;;;;12.00;10.77;;;28.70;99.90;;;;;;4918647;29;20904;-64
2021/07/24 10:27:10;;;;;;;12.67;11.43;;;28.70;99.00;;;;;;4918261;29;20416;-64
2021/07/24 10:29:41;;;;;;;12.77;11.40;;;28.80;99.30;;;;;;4918410;29;20403;-64
2021/07/24 10:32:09;;;;;;;11.67;10.57;;;29.30;98.90;;;;;;4918418;29;20403;-63
2021/07/24 10:34:40;;;;;;;10.90;9.87;;;29.50;99.60;;;;;;4918926;29;20840;-64
2021/07/24 10:37:32;;;;;;;12.80;10.97;;;29.70;99.10;;;;;;4918732;29;20446;-66
2021/07/24 10:40:16;;;;;;;12.83;10.13;;;30.10;98.70;;;;;;4918497;29;20404;-64
2021/07/24 10:42:44;;;;;;;12.40;10.07;;;30.20;96.50;;;;;;4917986;29;20503;-64
2021/07/24 10:45:45;;;;;;;12.10;10.87;;;30.20;96.30;;;;;;4918210;29;20490;-64
2021/07/24 10:48:13;;;;;;;13.67;11.83;;;30.10;96.70;;;;;;4918382;29;20384;-64
2021/07/24 10:50:54;;;;;;;11.70;10.00;;;29.60;97.30;;;;;;4918033;29;20404;-64
2021/07/24 10:53:21;;;;;;;12.37;11.07;;;29.50;97.90;;;;;;4918163;29;20419;-64
2021/07/24 10:55:49;;;;;;;11.33;10.23;;;29.50;97.30;;;;;;4917483;29;20483;-63
2021/07/24 10:58:16;;;;;;;10.83;9.73;;;29.30;97.40;;;;;;4917864;29;20403;-65
2021/07/24 11:00:52;;;;;;;10.50;9.60;;;29.30;97.00;;;;;;4916985;29;20439;-65
2021/07/24 11:03:37;;;;;;;13.10;10.83;;;29.60;96.90;;;;;;4917805;29;20390;-65
2021/07/24 11:06:29;;;;;;;12.83;11.63;;;30.00;96.80;;;;;;4917757;29;20498;-64
2021/07/24 11:08:57;;;;;;;12.07;10.50;;;29.70;97.30;;;;;;4918164;29;20414;-65
2021/07/24 11:11:41;;;;;;;11.30;10.10;;;29.60;97.20;;;;;;4917650;29;20738;-65
2021/07/24 11:14:08;;;;;;;12.00;10.90;;;29.80;98.10;;;;;;4917866;29;20426;-64
2021/07/24 11:17:08;;;;;;;10.90;9.90;;;29.90;97.50;;;;;;4918030;29;20411;-65
2021/07/24 11:19:38;;;;;;;11.70;10.53;;;30.20;96.70;;;;;;4917407;29;20913;-65
2021/07/24 11:22:09;;;;;;;12.90;9.97;;;30.10;97.50;;;;;;4917711;29;20440;-65
2021/07/24 11:24:34;;;;;;;11.33;9.90;;;30.00;97.00;;;;;;4917673;29;20466;-65
2021/07/24 11:27:00;;;;;;;10.93;8.80;;;30.20;97.10;;;;;;4917559;29;20408;-64
2021/07/24 11:29:26;;;;;;;9.83;8.60;;;30.80;96.80;;;;;;4917664;29;20202;-63
2021/07/24 11:31:52;;;;;;;8.97;6.80;;;30.90;95.40;;;;;;4917473;29;20164;-63
2021/07/24 11:34:22;;;;;;;9.47;7.57;;;30.80;94.70;;;;;;4917588;29;20631;-64
2021/07/24 11:36:51;;;;;;;9.10;8.20;;;30.50;95.00;;;;;;4917382;29;20498;-64
2021/07/24 11:39:22;;;;;;;8.57;7.77;;;30.20;94.90;;;;;;4917810;29;20415;-64
2021/07/24 11:41:47;;;;;;;8.50;6.77;;;29.60;95.30;;;;;;4917295;29;20447;-65
2021/07/24 11:44:30;;;;;;;8.37;7.30;;;29.70;95.70;;;;;;4917017;29;20863;-64
2021/07/24 11:47:03;;;;;;;10.90;8.30;;;29.70;97.00;;;;;;4917183;29;20574;-64
2021/07/24 11:49:30;;;;;;;8.77;7.70;;;29.80;96.70;;;;;;4915971;29;20423;-64
2021/07/24 11:51:57;;;;;;;10.47;7.80;;;29.50;98.20;;;;;;4917577;29;20408;-64
2021/07/24 11:54:29;;;;;;;8.80;7.30;;;29.40;97.80;;;;;;4916935;29;20995;-64
2021/07/24 11:56:55;;;;;;;8.53;7.70;;;29.30;98.50;;;;;;4917169;29;20415;-64
2021/07/24 11:59:21;;;;;;;8.93;7.50;;;29.50;96.60;;;;;;4918047;29;20403;-64
2021/07/24 12:01:47;;;;;;;8.90;7.00;;;29.70;95.50;;;;;;4917378;29;20543;-64
2021/07/24 12:04:13;;;;;;;8.83;7.93;;;29.70;96.10;;;;;;4917163;29;20455;-65
2021/07/24 12:06:52;;;;;;;9.17;8.30;;;30.20;94.70;;;;;;4917301;29;20599;-65
2021/07/24 12:09:19;;;;;;;8.47;7.63;;;30.80;94.50;;;;;;4917464;29;20435;-65
2021/07/24 12:11:53;;;;;;;9.13;8.27;;;31.40;93.40;;;;;;4918617;29;20407;-65
2021/07/24 12:14:24;;;;;;;9.07;7.63;;;32.70;91.10;;;;;;4920714;29;20939;-63
2021/07/24 12:17:09;;;;;;;11.20;8.33;;;33.80;91.10;;;;;;4920774;29;20412;-65
2021/07/24 12:19:38;;;;;;;10.07;9.03;;;34.40;89.40;;;;;;4921118;29;20391;-65
2021/07/24 12:22:26;;;;;;;8.63;7.47;;;34.80;85.70;;;;;;4920822;29;20410;-65
2021/07/24 12:25:10;;;;;;;8.33;7.50;;;35.60;82.80;;;;;;4920589;29;20459;-64
2021/07/24 12:27:47;;;;;;;8.83;7.90;;;35.90;78.20;;;;;;4925405;29;20434;-65
2021/07/24 12:30:26;;;;;;;8.00;7.10;;;34.70;79.00;;;;;;4939829;29;20799;-64
2021/07/24 12:32:51;;;;;;;8.60;7.77;;;33.30;83.20;;;;;;4940312;29;20417;-64
2021/07/24 12:35:20;;;;;;;7.83;7.13;;;32.70;83.30;;;;;;4939926;29;20431;-64
2021/07/24 12:37:46;;;;;;;8.53;7.83;;;33.10;84.20;;;;;;4939993;29;20175;-66